Embudo, NM

3:18 AM MDT on August 26, 2016 (GMT -0600)
Velarde | | Change Station

Elev 5781 ft 36.16 °N, 105.97 °W | Updated 2 minutes ago

Overcast
Overcast
56.7 °F
Feels Like 56.7 °F
N
0.0
Wind Variable Wind from North
Gusts 0.0 mph

Today
High -- | Low -- °F
--% Chance of Precip.
Yesterday
High -- | Low -- °F
Precip. -- in
Pressure 30.32 in
Visibility 10.0 miles
Clouds Overcast 8500 ft
Dew Point 54 °F
Humidity 91%
Rainfall 0.08 in
Snow Depth Not available.
6:31 AM 7:39 PM
Last Quarter, 36% visible
METAR KLAM 260855Z AUTO 00000KT 10SM OVC085 12/09 A3032 RMK AO2 60001 T01150087
Pressure 30.32 in
Visibility 10.0 miles
Clouds Overcast 8500 ft
Dew Point 54 °F
Humidity 91%
Rainfall 0.08 in
Snow Depth Not available.
6:31 AM 7:39 PM
Last Quarter, 36% visible
METAR KLAM 260855Z AUTO 00000KT 10SM OVC085 12/09 A3032 RMK AO2 60001 T01150087

10-Day Weather Forecast

Almanac

Astronomy

Aug. 26, 2016 Rise Set
Actual Time
Civil Twilight
Nautical Twilight
Astronomical Twilight
Moon
Length of Visible Light
Length of Day
Tomorrow will be .
, % of the Moon is Illuminated

Today's Extremes

State Highs State Lows

Community

WunderPhotos

Upload Photos

1,935,069 photos uploaded!

WunderBlog® & News

Nearby

Air Quality

  Air Quality AQ Index Pollutant
Not available.

Snow Depth

Station Depth Elevation

Earthquake Activity

City Distance Mag. Time & Date
Minimum magnitude displayed is 2.5.

Coastal Water Temperatures

Place Temperature

Stations

Nearby Weather Stations

Station Location Temp. Windchill Dew Point Humidity Wind Precip. Elev Updated Type
                   

Watches & Warnings

There are currently no watches in effect.